sensor_id;sensor_type;location;lat;lon;timestamp;P1;durP1;ratioP1;P2;durP2;ratioP2
73100;SDS011;61288;53.446;-2.266;2023-04-03T00:00:08;6.28;;;2.15;;
73100;SDS011;61288;53.446;-2.266;2023-04-03T00:02:34;7.53;;;2.40;;
73100;SDS011;61288;53.446;-2.266;2023-04-03T00:05:00;9.77;;;2.53;;
73100;SDS011;61288;53.446;-2.266;2023-04-03T00:07:25;8.35;;;2.67;;
73100;SDS011;61288;53.446;-2.266;2023-04-03T00:09:51;5.95;;;1.98;;
73100;SDS011;61288;53.446;-2.266;2023-04-03T00:12:16;7.28;;;2.22;;
73100;SDS011;61288;53.446;-2.266;2023-04-03T00:14:42;6.85;;;2.35;;
73100;SDS011;61288;53.446;-2.266;2023-04-03T00:17:07;5.70;;;2.20;;
73100;SDS011;61288;53.446;-2.266;2023-04-03T00:19:33;10.07;;;2.55;;
73100;SDS011;61288;53.446;-2.266;2023-04-03T00:22:01;7.22;;;2.33;;
73100;SDS011;61288;53.446;-2.266;2023-04-03T00:24:27;6.47;;;2.20;;
73100;SDS011;61288;53.446;-2.266;2023-04-03T00:26:52;9.68;;;2.47;;
73100;SDS011;61288;53.446;-2.266;2023-04-03T00:29:18;6.20;;;2.13;;
73100;SDS011;61288;53.446;-2.266;2023-04-03T00:31:43;10.43;;;2.10;;
73100;SDS011;61288;53.446;-2.266;2023-04-03T00:34:08;7.45;;;2.45;;
73100;SDS011;61288;53.446;-2.266;2023-04-03T00:36:34;8.70;;;2.45;;
73100;SDS011;61288;53.446;-2.266;2023-04-03T00:39:02;7.10;;;2.28;;
73100;SDS011;61288;53.446;-2.266;2023-04-03T00:41:28;6.10;;;2.20;;
73100;SDS011;61288;53.446;-2.266;2023-04-03T00:43:53;7.28;;;2.58;;
73100;SDS011;61288;53.446;-2.266;2023-04-03T00:46:19;10.60;;;2.83;;
73100;SDS011;61288;53.446;-2.266;2023-04-03T00:48:45;6.88;;;2.20;;
73100;SDS011;61288;53.446;-2.266;2023-04-03T00:51:22;7.13;;;2.40;;
73100;SDS011;61288;53.446;-2.266;2023-04-03T00:54:00;11.77;;;3.28;;
73100;SDS011;61288;53.446;-2.266;2023-04-03T00:56:27;10.00;;;2.40;;
73100;SDS011;61288;53.446;-2.266;2023-04-03T00:59:06;7.93;;;2.50;;
73100;SDS011;61288;53.446;-2.266;2023-04-03T01:01:35;6.53;;;2.10;;
73100;SDS011;61288;53.446;-2.266;2023-04-03T01:04:02;13.35;;;2.58;;
73100;SDS011;61288;53.446;-2.266;2023-04-03T01:06:37;9.48;;;2.00;;
73100;SDS011;61288;53.446;-2.266;2023-04-03T01:09:03;8.15;;;3.00;;
73100;SDS011;61288;53.446;-2.266;2023-04-03T01:11:29;7.97;;;2.40;;
73100;SDS011;61288;53.446;-2.266;2023-04-03T01:13:56;6.72;;;2.20;;
73100;SDS011;61288;53.446;-2.266;2023-04-03T01:19:26;6.70;;;2.20;;
73100;SDS011;61288;53.446;-2.266;2023-04-03T01:21:59;7.75;;;2.35;;
73100;SDS011;61288;53.446;-2.266;2023-04-03T01:24:44;6.63;;;2.22;;
73100;SDS011;61288;53.446;-2.266;2023-04-03T01:27:32;7.97;;;2.25;;
73100;SDS011;61288;53.446;-2.266;2023-04-03T01:30:00;10.25;;;2.38;;
73100;SDS011;61288;53.446;-2.266;2023-04-03T01:32:32;6.20;;;1.92;;
73100;SDS011;61288;53.446;-2.266;2023-04-03T01:35:00;9.45;;;2.38;;
73100;SDS011;61288;53.446;-2.266;2023-04-03T01:37:25;10.35;;;2.30;;
73100;SDS011;61288;53.446;-2.266;2023-04-03T01:39:51;11.55;;;2.35;;
73100;SDS011;61288;53.446;-2.266;2023-04-03T01:42:16;9.18;;;2.35;;
73100;SDS011;61288;53.446;-2.266;2023-04-03T01:44:42;5.63;;;2.13;;
73100;SDS011;61288;53.446;-2.266;2023-04-03T01:47:07;7.78;;;2.15;;
73100;SDS011;61288;53.446;-2.266;2023-04-03T01:49:33;11.02;;;2.70;;
73100;SDS011;61288;53.446;-2.266;2023-04-03T01:51:59;7.93;;;2.58;;
73100;SDS011;61288;53.446;-2.266;2023-04-03T01:54:25;12.05;;;2.10;;
73100;SDS011;61288;53.446;-2.266;2023-04-03T01:56:53;6.35;;;2.22;;
73100;SDS011;61288;53.446;-2.266;2023-04-03T01:59:18;7.97;;;2.28;;
73100;SDS011;61288;53.446;-2.266;2023-04-03T02:01:44;8.70;;;2.40;;
73100;SDS011;61288;53.446;-2.266;2023-04-03T02:04:10;7.22;;;2.05;;
73100;SDS011;61288;53.446;-2.266;2023-04-03T02:06:36;6.40;;;2.05;;
73100;SDS011;61288;53.446;-2.266;2023-04-03T02:09:03;5.70;;;1.98;;
73100;SDS011;61288;53.446;-2.266;2023-04-03T02:11:29;8.95;;;2.22;;
73100;SDS011;61288;53.446;-2.266;2023-04-03T02:13:54;8.27;;;2.30;;
73100;SDS011;61288;53.446;-2.266;2023-04-03T02:16:20;6.28;;;2.30;;
73100;SDS011;61288;53.446;-2.266;2023-04-03T02:18:45;8.80;;;2.00;;
73100;SDS011;61288;53.446;-2.266;2023-04-03T02:21:12;5.80;;;2.30;;
73100;SDS011;61288;53.446;-2.266;2023-04-03T02:23:38;6.10;;;1.88;;
73100;SDS011;61288;53.446;-2.266;2023-04-03T02:26:07;7.82;;;1.95;;
73100;SDS011;61288;53.446;-2.266;2023-04-03T02:28:35;5.65;;;2.30;;
73100;SDS011;61288;53.446;-2.266;2023-04-03T02:31:01;7.78;;;2.20;;
73100;SDS011;61288;53.446;-2.266;2023-04-03T02:33:27;5.30;;;1.95;;
73100;SDS011;61288;53.446;-2.266;2023-04-03T02:35:53;8.30;;;2.13;;
73100;SDS011;61288;53.446;-2.266;2023-04-03T02:38:20;7.07;;;2.33;;
73100;SDS011;61288;53.446;-2.266;2023-04-03T02:40:45;6.03;;;1.70;;
73100;SDS011;61288;53.446;-2.266;2023-04-03T02:43:11;9.90;;;2.05;;
73100;SDS011;61288;53.446;-2.266;2023-04-03T02:45:36;6.63;;;1.95;;
73100;SDS011;61288;53.446;-2.266;2023-04-03T02:48:02;7.63;;;1.92;;
73100;SDS011;61288;53.446;-2.266;2023-04-03T02:50:27;7.57;;;1.80;;
73100;SDS011;61288;53.446;-2.266;2023-04-03T02:52:53;8.93;;;2.20;;
73100;SDS011;61288;53.446;-2.266;2023-04-03T02:55:21;8.82;;;2.20;;
73100;SDS011;61288;53.446;-2.266;2023-04-03T02:57:46;5.93;;;2.15;;
73100;SDS011;61288;53.446;-2.266;2023-04-03T03:00:12;8.68;;;2.40;;
73100;SDS011;61288;53.446;-2.266;2023-04-03T03:02:39;7.05;;;2.03;;
73100;SDS011;61288;53.446;-2.266;2023-04-03T03:05:05;7.57;;;2.00;;
73100;SDS011;61288;53.446;-2.266;2023-04-03T03:07:30;7.10;;;2.50;;
73100;SDS011;61288;53.446;-2.266;2023-04-03T03:09:56;7.22;;;2.10;;
73100;SDS011;61288;53.446;-2.266;2023-04-03T03:12:21;9.15;;;2.33;;
73100;SDS011;61288;53.446;-2.266;2023-04-03T03:14:48;7.82;;;2.35;;
73100;SDS011;61288;53.446;-2.266;2023-04-03T03:17:13;6.13;;;2.00;;
73100;SDS011;61288;53.446;-2.266;2023-04-03T03:19:39;6.95;;;2.15;;
73100;SDS011;61288;53.446;-2.266;2023-04-03T03:22:05;5.35;;;2.10;;
73100;SDS011;61288;53.446;-2.266;2023-04-03T03:24:30;7.38;;;1.98;;
73100;SDS011;61288;53.446;-2.266;2023-04-03T03:26:55;6.30;;;2.10;;
73100;SDS011;61288;53.446;-2.266;2023-04-03T03:29:22;8.70;;;2.35;;
73100;SDS011;61288;53.446;-2.266;2023-04-03T03:31:48;6.80;;;1.85;;
73100;SDS011;61288;53.446;-2.266;2023-04-03T03:34:13;7.53;;;2.45;;
73100;SDS011;61288;53.446;-2.266;2023-04-03T03:36:39;5.43;;;1.90;;
73100;SDS011;61288;53.446;-2.266;2023-04-03T03:39:04;6.03;;;2.30;;
73100;SDS011;61288;53.446;-2.266;2023-04-03T03:41:30;7.07;;;2.40;;
73100;SDS011;61288;53.446;-2.266;2023-04-03T03:43:56;6.20;;;2.13;;
73100;SDS011;61288;53.446;-2.266;2023-04-03T03:46:22;5.30;;;2.08;;
73100;SDS011;61288;53.446;-2.266;2023-04-03T03:48:47;7.95;;;2.08;;
73100;SDS011;61288;53.446;-2.266;2023-04-03T03:51:13;9.02;;;2.72;;
73100;SDS011;61288;53.446;-2.266;2023-04-03T03:53:38;6.20;;;2.05;;
73100;SDS011;61288;53.446;-2.266;2023-04-03T03:56:04;6.70;;;1.92;;
73100;SDS011;61288;53.446;-2.266;2023-04-03T03:58:30;9.50;;;2.80;;
73100;SDS011;61288;53.446;-2.266;2023-04-03T04:00:59;6.72;;;2.42;;
73100;SDS011;61288;53.446;-2.266;2023-04-03T04:03:26;8.38;;;2.60;;
73100;SDS011;61288;53.446;-2.266;2023-04-03T04:05:51;9.77;;;2.28;;
73100;SDS011;61288;53.446;-2.266;2023-04-03T04:08:17;7.00;;;2.30;;
73100;SDS011;61288;53.446;-2.266;2023-04-03T04:10:42;9.82;;;2.88;;
73100;SDS011;61288;53.446;-2.266;2023-04-03T04:13:08;7.10;;;2.40;;
73100;SDS011;61288;53.446;-2.266;2023-04-03T04:15:33;7.72;;;2.55;;
73100;SDS011;61288;53.446;-2.266;2023-04-03T04:17:58;9.27;;;2.78;;
73100;SDS011;61288;53.446;-2.266;2023-04-03T04:20:24;5.90;;;2.63;;
73100;SDS011;61288;53.446;-2.266;2023-04-03T04:22:49;7.15;;;2.90;;
73100;SDS011;61288;53.446;-2.266;2023-04-03T04:25:15;7.47;;;2.38;;
73100;SDS011;61288;53.446;-2.266;2023-04-03T04:27:40;7.55;;;2.55;;
73100;SDS011;61288;53.446;-2.266;2023-04-03T04:35:42;6.78;;;2.42;;
73100;SDS011;61288;53.446;-2.266;2023-04-03T04:38:09;6.97;;;2.80;;
73100;SDS011;61288;53.446;-2.266;2023-04-03T04:40:35;6.90;;;2.70;;
73100;SDS011;61288;53.446;-2.266;2023-04-03T04:43:02;9.65;;;2.83;;
73100;SDS011;61288;53.446;-2.266;2023-04-03T04:45:28;10.35;;;3.15;;
73100;SDS011;61288;53.446;-2.266;2023-04-03T04:47:55;9.32;;;2.90;;
73100;SDS011;61288;53.446;-2.266;2023-04-03T04:50:21;9.20;;;2.42;;
73100;SDS011;61288;53.446;-2.266;2023-04-03T04:52:49;8.57;;;2.58;;
73100;SDS011;61288;53.446;-2.266;2023-04-03T04:55:14;8.23;;;2.42;;
73100;SDS011;61288;53.446;-2.266;2023-04-03T04:57:40;9.80;;;2.70;;
73100;SDS011;61288;53.446;-2.266;2023-04-03T05:00:05;7.70;;;2.78;;
73100;SDS011;61288;53.446;-2.266;2023-04-03T05:02:31;10.65;;;3.05;;
73100;SDS011;61288;53.446;-2.266;2023-04-03T05:04:57;9.38;;;2.65;;
73100;SDS011;61288;53.446;-2.266;2023-04-03T05:07:22;6.72;;;2.53;;
73100;SDS011;61288;53.446;-2.266;2023-04-03T05:09:49;6.72;;;2.17;;
73100;SDS011;61288;53.446;-2.266;2023-04-03T05:12:15;9.10;;;3.00;;
73100;SDS011;61288;53.446;-2.266;2023-04-03T05:14:42;7.15;;;2.55;;
73100;SDS011;61288;53.446;-2.266;2023-04-03T05:17:10;7.55;;;2.70;;
73100;SDS011;61288;53.446;-2.266;2023-04-03T05:19:37;10.30;;;2.95;;
73100;SDS011;61288;53.446;-2.266;2023-04-03T05:22:03;9.48;;;2.88;;
73100;SDS011;61288;53.446;-2.266;2023-04-03T05:24:29;9.55;;;2.72;;
73100;SDS011;61288;53.446;-2.266;2023-04-03T05:26:54;8.75;;;3.03;;
73100;SDS011;61288;53.446;-2.266;2023-04-03T05:29:20;9.20;;;2.92;;
73100;SDS011;61288;53.446;-2.266;2023-04-03T05:31:48;11.68;;;2.95;;
73100;SDS011;61288;53.446;-2.266;2023-04-03T05:34:15;8.13;;;3.05;;
73100;SDS011;61288;53.446;-2.266;2023-04-03T05:36:41;9.23;;;3.55;;
73100;SDS011;61288;53.446;-2.266;2023-04-03T05:39:06;9.60;;;3.00;;
73100;SDS011;61288;53.446;-2.266;2023-04-03T05:41:32;10.60;;;3.67;;
73100;SDS011;61288;53.446;-2.266;2023-04-03T05:43:57;9.40;;;2.95;;
73100;SDS011;61288;53.446;-2.266;2023-04-03T05:46:23;9.80;;;2.83;;
73100;SDS011;61288;53.446;-2.266;2023-04-03T05:48:48;8.60;;;3.05;;
73100;SDS011;61288;53.446;-2.266;2023-04-03T05:51:22;12.07;;;3.75;;
73100;SDS011;61288;53.446;-2.266;2023-04-03T05:54:06;9.05;;;3.65;;
73100;SDS011;61288;53.446;-2.266;2023-04-03T05:56:36;8.57;;;3.22;;
73100;SDS011;61288;53.446;-2.266;2023-04-03T05:59:02;10.43;;;3.35;;
73100;SDS011;61288;53.446;-2.266;2023-04-03T06:01:27;8.50;;;3.15;;
73100;SDS011;61288;53.446;-2.266;2023-04-03T06:03:54;11.30;;;3.67;;
73100;SDS011;61288;53.446;-2.266;2023-04-03T06:06:20;10.93;;;4.03;;
73100;SDS011;61288;53.446;-2.266;2023-04-03T06:08:47;11.20;;;3.33;;
73100;SDS011;61288;53.446;-2.266;2023-04-03T06:11:12;12.52;;;3.40;;
73100;SDS011;61288;53.446;-2.266;2023-04-03T06:13:38;13.38;;;3.97;;
73100;SDS011;61288;53.446;-2.266;2023-04-03T06:16:04;9.77;;;3.38;;
73100;SDS011;61288;53.446;-2.266;2023-04-03T06:18:30;10.38;;;3.72;;
73100;SDS011;61288;53.446;-2.266;2023-04-03T06:20:56;7.07;;;2.97;;
73100;SDS011;61288;53.446;-2.266;2023-04-03T06:23:23;13.20;;;3.72;;
73100;SDS011;61288;53.446;-2.266;2023-04-03T06:25:48;11.82;;;3.55;;
73100;SDS011;61288;53.446;-2.266;2023-04-03T06:28:14;11.25;;;4.15;;
73100;SDS011;61288;53.446;-2.266;2023-04-03T06:30:39;10.07;;;3.40;;
73100;SDS011;61288;53.446;-2.266;2023-04-03T06:33:05;11.50;;;3.50;;
73100;SDS011;61288;53.446;-2.266;2023-04-03T06:35:30;13.20;;;4.28;;
73100;SDS011;61288;53.446;-2.266;2023-04-03T06:37:56;10.80;;;3.90;;
73100;SDS011;61288;53.446;-2.266;2023-04-03T06:40:23;13.00;;;4.25;;
73100;SDS011;61288;53.446;-2.266;2023-04-03T06:42:51;13.27;;;4.10;;
73100;SDS011;61288;53.446;-2.266;2023-04-03T06:45:16;11.20;;;3.80;;
73100;SDS011;61288;53.446;-2.266;2023-04-03T06:47:42;12.93;;;4.13;;
73100;SDS011;61288;53.446;-2.266;2023-04-03T06:50:09;11.52;;;3.58;;
73100;SDS011;61288;53.446;-2.266;2023-04-03T06:52:36;8.35;;;3.22;;
73100;SDS011;61288;53.446;-2.266;2023-04-03T06:55:03;14.10;;;3.75;;
73100;SDS011;61288;53.446;-2.266;2023-04-03T06:57:29;12.52;;;3.88;;
73100;SDS011;61288;53.446;-2.266;2023-04-03T06:59:54;10.55;;;3.33;;
73100;SDS011;61288;53.446;-2.266;2023-04-03T07:02:20;16.02;;;3.67;;
73100;SDS011;61288;53.446;-2.266;2023-04-03T07:04:47;10.95;;;3.08;;
73100;SDS011;61288;53.446;-2.266;2023-04-03T07:07:12;10.55;;;3.25;;
73100;SDS011;61288;53.446;-2.266;2023-04-03T07:09:38;9.85;;;2.92;;
73100;SDS011;61288;53.446;-2.266;2023-04-03T07:12:03;8.38;;;2.65;;
73100;SDS011;61288;53.446;-2.266;2023-04-03T07:14:29;11.10;;;2.17;;
73100;SDS011;61288;53.446;-2.266;2023-04-03T07:16:54;8.05;;;2.08;;
73100;SDS011;61288;53.446;-2.266;2023-04-03T07:19:20;8.48;;;2.08;;
73100;SDS011;61288;53.446;-2.266;2023-04-03T07:21:46;5.47;;;1.60;;
73100;SDS011;61288;53.446;-2.266;2023-04-03T07:24:12;7.72;;;1.90;;
73100;SDS011;61288;53.446;-2.266;2023-04-03T07:26:38;9.10;;;1.90;;
73100;SDS011;61288;53.446;-2.266;2023-04-03T07:29:03;5.63;;;1.73;;
73100;SDS011;61288;53.446;-2.266;2023-04-03T07:31:29;6.07;;;1.90;;
73100;SDS011;61288;53.446;-2.266;2023-04-03T07:33:54;6.32;;;1.50;;
73100;SDS011;61288;53.446;-2.266;2023-04-03T07:36:21;6.43;;;1.65;;
73100;SDS011;61288;53.446;-2.266;2023-04-03T07:38:47;4.25;;;1.92;;
73100;SDS011;61288;53.446;-2.266;2023-04-03T07:41:18;11.35;;;2.13;;
73100;SDS011;61288;53.446;-2.266;2023-04-03T07:43:46;9.52;;;2.00;;
73100;SDS011;61288;53.446;-2.266;2023-04-03T07:46:12;7.38;;;1.90;;
73100;SDS011;61288;53.446;-2.266;2023-04-03T07:48:38;8.73;;;2.00;;
73100;SDS011;61288;53.446;-2.266;2023-04-03T07:51:04;7.55;;;1.80;;
73100;SDS011;61288;53.446;-2.266;2023-04-03T07:53:30;6.47;;;2.30;;
73100;SDS011;61288;53.446;-2.266;2023-04-03T07:55:56;8.20;;;1.73;;
73100;SDS011;61288;53.446;-2.266;2023-04-03T07:58:23;11.57;;;2.35;;
73100;SDS011;61288;53.446;-2.266;2023-04-03T08:00:48;6.30;;;1.73;;
73100;SDS011;61288;53.446;-2.266;2023-04-03T08:03:14;7.68;;;1.83;;
73100;SDS011;61288;53.446;-2.266;2023-04-03T08:05:45;10.48;;;1.63;;
73100;SDS011;61288;53.446;-2.266;2023-04-03T08:08:12;8.73;;;1.27;;
73100;SDS011;61288;53.446;-2.266;2023-04-03T08:10:40;9.75;;;1.70;;
73100;SDS011;61288;53.446;-2.266;2023-04-03T08:13:06;6.60;;;1.60;;
73100;SDS011;61288;53.446;-2.266;2023-04-03T08:15:32;4.45;;;1.25;;
73100;SDS011;61288;53.446;-2.266;2023-04-03T08:17:58;8.93;;;1.50;;
73100;SDS011;61288;53.446;-2.266;2023-04-03T08:20:26;5.97;;;1.65;;
73100;SDS011;61288;53.446;-2.266;2023-04-03T08:22:52;6.15;;;1.58;;
73100;SDS011;61288;53.446;-2.266;2023-04-03T08:25:17;6.30;;;1.48;;
73100;SDS011;61288;53.446;-2.266;2023-04-03T08:27:43;7.22;;;1.88;;
73100;SDS011;61288;53.446;-2.266;2023-04-03T08:30:09;7.07;;;1.70;;
73100;SDS011;61288;53.446;-2.266;2023-04-03T08:32:36;6.07;;;1.52;;
73100;SDS011;61288;53.446;-2.266;2023-04-03T08:35:03;6.82;;;1.50;;
73100;SDS011;61288;53.446;-2.266;2023-04-03T08:37:30;7.50;;;1.80;;
73100;SDS011;61288;53.446;-2.266;2023-04-03T08:39:55;9.73;;;1.90;;
73100;SDS011;61288;53.446;-2.266;2023-04-03T08:50:48;5.40;;;1.30;;
73100;SDS011;61288;53.446;-2.266;2023-04-03T08:53:18;7.30;;;1.60;;
73100;SDS011;61288;53.446;-2.266;2023-04-03T08:55:47;7.05;;;1.90;;
73100;SDS011;61288;53.446;-2.266;2023-04-03T08:58:19;7.15;;;2.03;;
73100;SDS011;61288;53.446;-2.266;2023-04-03T09:00:50;9.13;;;1.52;;
73100;SDS011;61288;53.446;-2.266;2023-04-03T09:03:19;7.18;;;1.70;;
73100;SDS011;61288;53.446;-2.266;2023-04-03T09:09:24;7.32;;;1.30;;
73100;SDS011;61288;53.446;-2.266;2023-04-03T09:11:47;8.48;;;1.60;;
73100;SDS011;61288;53.446;-2.266;2023-04-03T09:16:55;5.72;;;1.45;;
73100;SDS011;61288;53.446;-2.266;2023-04-03T09:21:48;7.03;;;1.63;;
73100;SDS011;61288;53.446;-2.266;2023-04-03T09:24:15;6.60;;;2.13;;
73100;SDS011;61288;53.446;-2.266;2023-04-03T09:26:51;4.88;;;1.60;;
73100;SDS011;61288;53.446;-2.266;2023-04-03T09:29:21;5.85;;;1.50;;
73100;SDS011;61288;53.446;-2.266;2023-04-03T09:31:50;6.55;;;1.60;;
73100;SDS011;61288;53.446;-2.266;2023-04-03T09:34:25;7.93;;;1.52;;
73100;SDS011;61288;53.446;-2.266;2023-04-03T09:36:56;8.15;;;1.80;;
73100;SDS011;61288;53.446;-2.266;2023-04-03T09:39:31;5.88;;;1.52;;
73100;SDS011;61288;53.446;-2.266;2023-04-03T09:44:44;9.82;;;1.83;;
73100;SDS011;61288;53.446;-2.266;2023-04-03T09:52:49;4.05;;;1.40;;
73100;SDS011;61288;53.446;-2.266;2023-04-03T09:55:20;7.05;;;1.80;;
73100;SDS011;61288;53.446;-2.266;2023-04-03T09:58:01;7.15;;;1.58;;
73100;SDS011;61288;53.446;-2.266;2023-04-03T10:00:33;7.25;;;1.67;;
73100;SDS011;61288;53.446;-2.266;2023-04-03T10:03:01;7.57;;;1.50;;
73100;SDS011;61288;53.446;-2.266;2023-04-03T10:05:29;7.13;;;1.40;;
73100;SDS011;61288;53.446;-2.266;2023-04-03T10:08:09;10.57;;;1.63;;
73100;SDS011;61288;53.446;-2.266;2023-04-03T10:10:38;6.68;;;1.77;;
73100;SDS011;61288;53.446;-2.266;2023-04-03T10:13:05;5.82;;;1.42;;
73100;SDS011;61288;53.446;-2.266;2023-04-03T10:15:43;7.22;;;1.75;;
73100;SDS011;61288;53.446;-2.266;2023-04-03T10:21:29;10.88;;;1.80;;
73100;SDS011;61288;53.446;-2.266;2023-04-03T10:26:52;6.13;;;1.48;;
73100;SDS011;61288;53.446;-2.266;2023-04-03T10:29:41;7.53;;;1.80;;
73100;SDS011;61288;53.446;-2.266;2023-04-03T10:41:10;8.57;;;1.80;;
73100;SDS011;61288;53.446;-2.266;2023-04-03T10:54:16;7.32;;;1.73;;
73100;SDS011;61288;53.446;-2.266;2023-04-03T10:56:50;7.72;;;1.80;;
73100;SDS011;61288;53.446;-2.266;2023-04-03T10:59:32;8.60;;;1.70;;
73100;SDS011;61288;53.446;-2.266;2023-04-03T11:02:16;6.47;;;2.03;;
73100;SDS011;61288;53.446;-2.266;2023-04-03T11:04:44;9.98;;;2.20;;
73100;SDS011;61288;53.446;-2.266;2023-04-03T11:09:45;8.68;;;2.15;;
73100;SDS011;61288;53.446;-2.266;2023-04-03T11:12:33;9.63;;;2.00;;
73100;SDS011;61288;53.446;-2.266;2023-04-03T11:15:11;7.03;;;1.90;;
73100;SDS011;61288;53.446;-2.266;2023-04-03T11:17:41;7.43;;;2.35;;
73100;SDS011;61288;53.446;-2.266;2023-04-03T11:20:23;7.72;;;1.95;;
73100;SDS011;61288;53.446;-2.266;2023-04-03T11:26:06;8.65;;;2.38;;
73100;SDS011;61288;53.446;-2.266;2023-04-03T11:28:37;6.40;;;2.05;;
73100;SDS011;61288;53.446;-2.266;2023-04-03T11:31:15;8.75;;;2.20;;
73100;SDS011;61288;53.446;-2.266;2023-04-03T11:36:25;9.75;;;2.22;;
73100;SDS011;61288;53.446;-2.266;2023-04-03T11:38:56;8.93;;;2.17;;
73100;SDS011;61288;53.446;-2.266;2023-04-03T11:41:29;10.40;;;2.60;;
73100;SDS011;61288;53.446;-2.266;2023-04-03T11:44:25;8.23;;;2.00;;
73100;SDS011;61288;53.446;-2.266;2023-04-03T11:46:57;7.25;;;2.17;;
73100;SDS011;61288;53.446;-2.266;2023-04-03T12:05:51;6.80;;;1.70;;
73100;SDS011;61288;53.446;-2.266;2023-04-03T12:08:29;4.80;;;1.60;;
73100;SDS011;61288;53.446;-2.266;2023-04-03T12:21:21;9.82;;;1.63;;
73100;SDS011;61288;53.446;-2.266;2023-04-03T12:29:20;6.35;;;1.60;;
73100;SDS011;61288;53.446;-2.266;2023-04-03T12:40:31;9.80;;;2.10;;
73100;SDS011;61288;53.446;-2.266;2023-04-03T12:43:17;5.00;;;1.85;;
73100;SDS011;61288;53.446;-2.266;2023-04-03T12:45:56;8.27;;;1.67;;
73100;SDS011;61288;53.446;-2.266;2023-04-03T12:48:28;7.53;;;1.85;;
73100;SDS011;61288;53.446;-2.266;2023-04-03T12:50:57;11.30;;;1.88;;
73100;SDS011;61288;53.446;-2.266;2023-04-03T12:53:42;8.15;;;2.22;;
73100;SDS011;61288;53.446;-2.266;2023-04-03T12:56:24;8.32;;;1.60;;
73100;SDS011;61288;53.446;-2.266;2023-04-03T12:58:52;10.75;;;2.20;;
73100;SDS011;61288;53.446;-2.266;2023-04-03T13:01:25;6.35;;;2.00;;
73100;SDS011;61288;53.446;-2.266;2023-04-03T13:03:52;7.00;;;1.60;;
73100;SDS011;61288;53.446;-2.266;2023-04-03T13:08:49;6.30;;;1.73;;
73100;SDS011;61288;53.446;-2.266;2023-04-03T13:11:19;9.10;;;1.95;;
73100;SDS011;61288;53.446;-2.266;2023-04-03T13:13:54;6.53;;;1.60;;
73100;SDS011;61288;53.446;-2.266;2023-04-03T13:16:21;6.53;;;1.75;;
73100;SDS011;61288;53.446;-2.266;2023-04-03T13:18:50;7.75;;;2.13;;
73100;SDS011;61288;53.446;-2.266;2023-04-03T13:21:17;6.70;;;1.80;;
73100;SDS011;61288;53.446;-2.266;2023-04-03T13:23:49;6.82;;;2.20;;
73100;SDS011;61288;53.446;-2.266;2023-04-03T13:26:17;6.05;;;1.80;;
73100;SDS011;61288;53.446;-2.266;2023-04-03T13:28:44;8.00;;;1.92;;
73100;SDS011;61288;53.446;-2.266;2023-04-03T13:33:37;10.43;;;1.95;;
73100;SDS011;61288;53.446;-2.266;2023-04-03T13:38:30;6.35;;;1.80;;
73100;SDS011;61288;53.446;-2.266;2023-04-03T13:40:59;4.95;;;1.63;;
73100;SDS011;61288;53.446;-2.266;2023-04-03T13:43:32;6.22;;;2.00;;
73100;SDS011;61288;53.446;-2.266;2023-04-03T13:48:37;7.85;;;2.10;;
73100;SDS011;61288;53.446;-2.266;2023-04-03T13:53:45;9.27;;;2.28;;
73100;SDS011;61288;53.446;-2.266;2023-04-03T13:56:17;8.90;;;2.13;;
73100;SDS011;61288;53.446;-2.266;2023-04-03T13:58:54;7.28;;;2.00;;
73100;SDS011;61288;53.446;-2.266;2023-04-03T14:01:48;10.45;;;2.30;;
73100;SDS011;61288;53.446;-2.266;2023-04-03T14:04:21;8.40;;;2.10;;
73100;SDS011;61288;53.446;-2.266;2023-04-03T14:06:52;8.10;;;2.20;;
73100;SDS011;61288;53.446;-2.266;2023-04-03T14:09:25;5.88;;;2.17;;
73100;SDS011;61288;53.446;-2.266;2023-04-03T14:11:54;12.15;;;2.22;;
73100;SDS011;61288;53.446;-2.266;2023-04-03T14:14:24;5.68;;;2.10;;
73100;SDS011;61288;53.446;-2.266;2023-04-03T14:16:57;7.93;;;2.30;;
73100;SDS011;61288;53.446;-2.266;2023-04-03T14:19:31;11.60;;;2.53;;
73100;SDS011;61288;53.446;-2.266;2023-04-03T14:22:14;6.97;;;2.47;;
73100;SDS011;61288;53.446;-2.266;2023-04-03T14:24:42;8.57;;;2.50;;
73100;SDS011;61288;53.446;-2.266;2023-04-03T14:29:52;7.53;;;1.80;;
73100;SDS011;61288;53.446;-2.266;2023-04-03T14:32:20;9.82;;;2.15;;
73100;SDS011;61288;53.446;-2.266;2023-04-03T14:34:48;8.20;;;1.92;;
73100;SDS011;61288;53.446;-2.266;2023-04-03T14:37:17;8.57;;;2.10;;
73100;SDS011;61288;53.446;-2.266;2023-04-03T14:39:47;5.63;;;2.00;;
73100;SDS011;61288;53.446;-2.266;2023-04-03T14:42:15;9.00;;;2.55;;
73100;SDS011;61288;53.446;-2.266;2023-04-03T14:44:42;5.38;;;2.13;;
73100;SDS011;61288;53.446;-2.266;2023-04-03T14:47:12;6.53;;;1.92;;
73100;SDS011;61288;53.446;-2.266;2023-04-03T14:49:40;7.05;;;2.60;;
73100;SDS011;61288;53.446;-2.266;2023-04-03T14:52:06;6.65;;;2.10;;
73100;SDS011;61288;53.446;-2.266;2023-04-03T14:54:40;7.35;;;2.05;;
73100;SDS011;61288;53.446;-2.266;2023-04-03T14:57:08;7.25;;;2.03;;
73100;SDS011;61288;53.446;-2.266;2023-04-03T14:59:37;11.30;;;2.70;;
73100;SDS011;61288;53.446;-2.266;2023-04-03T15:02:08;9.95;;;2.60;;
73100;SDS011;61288;53.446;-2.266;2023-04-03T15:04:56;11.25;;;2.40;;
73100;SDS011;61288;53.446;-2.266;2023-04-03T15:07:24;11.45;;;2.35;;
73100;SDS011;61288;53.446;-2.266;2023-04-03T15:09:53;8.43;;;2.00;;
73100;SDS011;61288;53.446;-2.266;2023-04-03T15:12:22;7.35;;;2.10;;
73100;SDS011;61288;53.446;-2.266;2023-04-03T15:14:48;9.45;;;2.20;;
73100;SDS011;61288;53.446;-2.266;2023-04-03T15:17:15;6.20;;;2.50;;
73100;SDS011;61288;53.446;-2.266;2023-04-03T15:19:42;10.13;;;2.17;;
73100;SDS011;61288;53.446;-2.266;2023-04-03T15:22:16;5.75;;;2.10;;
73100;SDS011;61288;53.446;-2.266;2023-04-03T15:24:43;6.88;;;2.05;;
73100;SDS011;61288;53.446;-2.266;2023-04-03T15:27:10;7.05;;;1.80;;
73100;SDS011;61288;53.446;-2.266;2023-04-03T15:29:38;6.25;;;2.05;;
73100;SDS011;61288;53.446;-2.266;2023-04-03T15:34:34;6.93;;;1.88;;
73100;SDS011;61288;53.446;-2.266;2023-04-03T15:37:00;10.05;;;2.72;;
73100;SDS011;61288;53.446;-2.266;2023-04-03T15:39:25;11.15;;;2.40;;
73100;SDS011;61288;53.446;-2.266;2023-04-03T15:41:51;8.20;;;2.33;;
73100;SDS011;61288;53.446;-2.266;2023-04-03T15:44:19;8.25;;;2.10;;
73100;SDS011;61288;53.446;-2.266;2023-04-03T15:46:48;9.23;;;2.38;;
73100;SDS011;61288;53.446;-2.266;2023-04-03T15:49:16;8.13;;;1.92;;
73100;SDS011;61288;53.446;-2.266;2023-04-03T15:51:46;7.45;;;2.08;;
73100;SDS011;61288;53.446;-2.266;2023-04-03T15:54:15;7.97;;;2.30;;
73100;SDS011;61288;53.446;-2.266;2023-04-03T15:56:40;11.48;;;2.33;;
73100;SDS011;61288;53.446;-2.266;2023-04-03T15:59:06;5.57;;;1.60;;
73100;SDS011;61288;53.446;-2.266;2023-04-03T16:01:31;9.73;;;2.22;;
73100;SDS011;61288;53.446;-2.266;2023-04-03T16:03:57;7.13;;;2.20;;
73100;SDS011;61288;53.446;-2.266;2023-04-03T16:06:23;9.70;;;2.28;;
73100;SDS011;61288;53.446;-2.266;2023-04-03T16:08:50;8.27;;;2.33;;
73100;SDS011;61288;53.446;-2.266;2023-04-03T16:11:22;10.70;;;2.40;;
73100;SDS011;61288;53.446;-2.266;2023-04-03T16:13:47;7.22;;;1.65;;
73100;SDS011;61288;53.446;-2.266;2023-04-03T16:16:13;8.20;;;1.88;;
73100;SDS011;61288;53.446;-2.266;2023-04-03T16:18:38;8.95;;;2.13;;
73100;SDS011;61288;53.446;-2.266;2023-04-03T16:21:04;9.90;;;2.30;;
73100;SDS011;61288;53.446;-2.266;2023-04-03T16:23:33;7.03;;;2.15;;
73100;SDS011;61288;53.446;-2.266;2023-04-03T16:25:59;7.30;;;2.00;;
73100;SDS011;61288;53.446;-2.266;2023-04-03T16:28:25;6.15;;;2.17;;
73100;SDS011;61288;53.446;-2.266;2023-04-03T16:30:50;7.38;;;2.00;;
73100;SDS011;61288;53.446;-2.266;2023-04-03T16:33:16;6.85;;;2.00;;
73100;SDS011;61288;53.446;-2.266;2023-04-03T16:35:41;7.82;;;1.90;;
73100;SDS011;61288;53.446;-2.266;2023-04-03T16:38:08;8.88;;;2.08;;
73100;SDS011;61288;53.446;-2.266;2023-04-03T16:40:34;7.35;;;1.98;;
73100;SDS011;61288;53.446;-2.266;2023-04-03T16:43:02;5.30;;;1.92;;
73100;SDS011;61288;53.446;-2.266;2023-04-03T16:45:28;6.78;;;1.92;;